PH-0147 weather

Ever Gotesco – Commonwealth Heliport
Quezon City, Philippines

Public forecast

Using degrees Celsius for public forecast. Weather courtesy of forecast.io.

METAR (pilot weather report)

Closest report is Ninoy Aquino International Airport, 10.9 nm (20.1 km) SSW. Retrieved 2019/09/19 03:35 UTC (0 seconds ago):

RPLL 190335Z 25018G29KT 8000 -SHRA SCT022 OVC090 26/24 Q1009 NOSIG RMK A2980

TAF (pilot weather forecast)

Forecast is more than 12 hours old.

Closest forecast is Ninoy Aquino International Airport, 10.9 nm (20.1 km) SSW. Retrieved 2019/09/18 00:00 UTC (1 day ago):

TAF RPLL 182300Z 1900/2006 24010KT 9999 SCT023 BKN100 TX29/1904Z TN25/1921Z TEMPO 1900/1906 26018KT 7000 -RA SCT020 OVC090 TEMPO 1906/1912 23018KT 6000 RA BKN020 OVC080